Philadelphia, PA

11:57 PM EST on December 24, 2014 (GMT -0500)
Somerton | Change Station
CLOSE
Current Station
Personal Weather Station
Location: Philadelphia, PA
Elevation: 167 ft
Nearby Weather Stations
Active Advisory: Special Statement

Elev 167 ft 40.13 °N, 75.00 °W | Updated 1 minute ago

Overcast
Overcast
61.7 °F
Feels Like 61.7 °F
N
4.3
Wind Variable Wind from SW

Today
High -- | Low -- °F
--% Chance of Precip.
Yesterday
High -- | Low -- °F
Precip. -- in
7:20 AM 4:39 PM
Waxing Crescent, 13% visible
Pressure 29.56 in
Visibility 10.0 miles
Clouds Overcast 1000 ft
Dew Point 61 °F
Humidity 99%
Rainfall 0.89 in
Snow Depth Not available.
UV 0 out of 12
Pollen .10 out of 12
Air Quality Not available.
Flu Activity Not available.
SPECI KPNE 250444Z AUTO 22014G23KT 10SM OVC010 18/15 A2956 RMK AO2 CIG 008V013 T01830150 TSNO

More Conditions Fewer Conditions

Pressure 29.56 in
Visibility 10.0 miles
Clouds Overcast 1000 ft
Dew Point 61 °F
Humidity 99%
Rainfall 0.89 in
Snow Depth Not available.
UV 0 out of 12
Pollen .10 out of 12
Air Quality Not available.
Flu Activity Not available.
SPECI KPNE 250444Z AUTO 22014G23KT 10SM OVC010 18/15 A2956 RMK AO2 CIG 008V013 T01830150 TSNO

More Conditions Fewer Conditions

10-Day Weather Forecast

Almanac

Astronomy

Dec. 24, 2014 Rise Set
Actual Time
Civil Twilight
Nautical Twilight
Astronomical Twilight
Moon
Length of Visible Light
Length of Day
Tomorrow will be .
, % of the Moon is Illuminated

Today's Extremes

State Highs State Lows

Community

WunderPhotos

Upload Photos

1,780,238 photos uploaded!

WunderBlogs® & News

Nearby

Air Quality

  Air Quality AQ Index Pollutant
Not available.

Snow Depth

Station Depth Elevation

Earthquake Activity

City Distance Mag. Time & Date
Minimum magnitude displayed is 2.5.

Coastal Water Temperatures

Place Temperature

Nearby Weather Stations